sensor_id;sensor_type;location;lat;lon;timestamp;P1;durP1;ratioP1;P2;durP2;ratioP2
57535;SDS011;43361;49.790;8.960;2023-01-08T00:08:18;6.68;;;2.90;;
57535;SDS011;43361;49.790;8.960;2023-01-08T00:18:18;5.40;;;2.65;;
57535;SDS011;43361;49.790;8.960;2023-01-08T00:28:20;6.55;;;2.50;;
57535;SDS011;43361;49.790;8.960;2023-01-08T00:38:23;5.03;;;2.42;;
57535;SDS011;43361;49.790;8.960;2023-01-08T00:48:25;4.72;;;2.38;;
57535;SDS011;43361;49.790;8.960;2023-01-08T00:58:25;4.63;;;2.35;;
57535;SDS011;43361;49.790;8.960;2023-01-08T01:08:27;4.32;;;2.05;;
57535;SDS011;43361;49.790;8.960;2023-01-08T01:18:28;3.45;;;1.83;;
57535;SDS011;43361;49.790;8.960;2023-01-08T01:28:29;4.35;;;2.35;;
57535;SDS011;43361;49.790;8.960;2023-01-08T01:38:30;2.92;;;1.70;;
57535;SDS011;43361;49.790;8.960;2023-01-08T01:48:32;4.35;;;1.85;;
57535;SDS011;43361;49.790;8.960;2023-01-08T01:58:32;3.08;;;1.80;;
57535;SDS011;43361;49.790;8.960;2023-01-08T02:08:35;3.67;;;1.83;;
57535;SDS011;43361;49.790;8.960;2023-01-08T02:18:39;3.15;;;1.92;;
57535;SDS011;43361;49.790;8.960;2023-01-08T02:28:46;3.17;;;1.77;;
57535;SDS011;43361;49.790;8.960;2023-01-08T02:38:49;3.53;;;1.80;;
57535;SDS011;43361;49.790;8.960;2023-01-08T02:48:55;3.42;;;1.73;;
57535;SDS011;43361;49.790;8.960;2023-01-08T02:58:57;2.70;;;1.50;;
57535;SDS011;43361;49.790;8.960;2023-01-08T03:08:59;2.17;;;1.40;;
57535;SDS011;43361;49.790;8.960;2023-01-08T03:19:01;2.63;;;1.60;;
57535;SDS011;43361;49.790;8.960;2023-01-08T03:29:06;2.80;;;1.67;;
57535;SDS011;43361;49.790;8.960;2023-01-08T03:39:11;3.53;;;1.58;;
57535;SDS011;43361;49.790;8.960;2023-01-08T03:49:14;3.75;;;1.33;;
57535;SDS011;43361;49.790;8.960;2023-01-08T03:59:15;3.58;;;1.73;;
57535;SDS011;43361;49.790;8.960;2023-01-08T04:09:17;1.92;;;1.30;;
57535;SDS011;43361;49.790;8.960;2023-01-08T04:19:17;2.05;;;1.40;;
57535;SDS011;43361;49.790;8.960;2023-01-08T04:29:19;4.30;;;1.70;;
57535;SDS011;43361;49.790;8.960;2023-01-08T04:39:19;2.15;;;1.02;;
57535;SDS011;43361;49.790;8.960;2023-01-08T04:49:21;2.22;;;1.13;;
57535;SDS011;43361;49.790;8.960;2023-01-08T04:59:21;2.15;;;1.10;;
57535;SDS011;43361;49.790;8.960;2023-01-08T05:09:23;2.50;;;1.05;;
57535;SDS011;43361;49.790;8.960;2023-01-08T05:19:23;1.77;;;1.13;;
57535;SDS011;43361;49.790;8.960;2023-01-08T05:29:25;2.80;;;1.20;;
57535;SDS011;43361;49.790;8.960;2023-01-08T05:39:26;1.60;;;1.00;;
57535;SDS011;43361;49.790;8.960;2023-01-08T05:49:27;1.80;;;1.10;;
57535;SDS011;43361;49.790;8.960;2023-01-08T05:59:28;1.83;;;0.98;;
57535;SDS011;43361;49.790;8.960;2023-01-08T06:09:29;1.73;;;1.02;;
57535;SDS011;43361;49.790;8.960;2023-01-08T06:19:30;7.15;;;1.70;;
57535;SDS011;43361;49.790;8.960;2023-01-08T06:29:32;9.85;;;1.58;;
57535;SDS011;43361;49.790;8.960;2023-01-08T06:39:32;3.05;;;1.38;;
57535;SDS011;43361;49.790;8.960;2023-01-08T06:49:34;3.47;;;1.20;;
57535;SDS011;43361;49.790;8.960;2023-01-08T06:59:34;5.00;;;1.80;;
57535;SDS011;43361;49.790;8.960;2023-01-08T07:09:36;7.10;;;1.80;;
57535;SDS011;43361;49.790;8.960;2023-01-08T07:19:36;9.23;;;1.40;;
57535;SDS011;43361;49.790;8.960;2023-01-08T07:29:38;10.77;;;2.00;;
57535;SDS011;43361;49.790;8.960;2023-01-08T07:39:38;9.25;;;1.60;;
57535;SDS011;43361;49.790;8.960;2023-01-08T07:49:40;13.95;;;2.40;;
57535;SDS011;43361;49.790;8.960;2023-01-08T07:59:40;10.38;;;2.17;;
57535;SDS011;43361;49.790;8.960;2023-01-08T08:09:42;12.97;;;2.40;;
57535;SDS011;43361;49.790;8.960;2023-01-08T08:19:43;16.17;;;2.88;;
57535;SDS011;43361;49.790;8.960;2023-01-08T08:29:46;20.85;;;2.67;;
57535;SDS011;43361;49.790;8.960;2023-01-08T08:39:46;16.08;;;2.63;;
57535;SDS011;43361;49.790;8.960;2023-01-08T08:49:48;14.27;;;2.63;;
57535;SDS011;43361;49.790;8.960;2023-01-08T08:59:48;11.27;;;2.90;;
57535;SDS011;43361;49.790;8.960;2023-01-08T09:09:50;8.95;;;2.75;;
57535;SDS011;43361;49.790;8.960;2023-01-08T09:19:50;15.63;;;2.83;;
57535;SDS011;43361;49.790;8.960;2023-01-08T09:29:52;13.35;;;3.03;;
57535;SDS011;43361;49.790;8.960;2023-01-08T09:39:52;12.75;;;2.75;;
57535;SDS011;43361;49.790;8.960;2023-01-08T09:49:56;12.13;;;2.83;;
57535;SDS011;43361;49.790;8.960;2023-01-08T09:59:58;10.10;;;2.83;;
57535;SDS011;43361;49.790;8.960;2023-01-08T10:10:00;11.57;;;2.60;;
57535;SDS011;43361;49.790;8.960;2023-01-08T10:20:00;7.90;;;2.38;;
57535;SDS011;43361;49.790;8.960;2023-01-08T10:30:05;8.15;;;2.80;;
57535;SDS011;43361;49.790;8.960;2023-01-08T10:40:13;11.13;;;2.35;;
57535;SDS011;43361;49.790;8.960;2023-01-08T10:50:19;7.10;;;2.30;;
57535;SDS011;43361;49.790;8.960;2023-01-08T11:00:22;10.68;;;2.80;;
57535;SDS011;43361;49.790;8.960;2023-01-08T11:10:24;9.52;;;2.00;;
57535;SDS011;43361;49.790;8.960;2023-01-08T11:20:27;11.65;;;3.17;;
57535;SDS011;43361;49.790;8.960;2023-01-08T11:30:29;13.18;;;3.30;;
57535;SDS011;43361;49.790;8.960;2023-01-08T11:40:33;15.30;;;3.38;;
57535;SDS011;43361;49.790;8.960;2023-01-08T11:50:39;16.13;;;3.35;;
57535;SDS011;43361;49.790;8.960;2023-01-08T12:00:47;11.60;;;3.47;;
57535;SDS011;43361;49.790;8.960;2023-01-08T12:11:02;10.63;;;3.00;;
57535;SDS011;43361;49.790;8.960;2023-01-08T12:21:07;20.48;;;3.97;;
57535;SDS011;43361;49.790;8.960;2023-01-08T12:31:17;8.98;;;3.17;;
57535;SDS011;43361;49.790;8.960;2023-01-08T12:41:21;11.07;;;3.45;;
57535;SDS011;43361;49.790;8.960;2023-01-08T12:51:25;9.27;;;2.78;;
57535;SDS011;43361;49.790;8.960;2023-01-08T13:01:30;10.20;;;3.38;;
57535;SDS011;43361;49.790;8.960;2023-01-08T13:11:34;7.70;;;2.92;;
57535;SDS011;43361;49.790;8.960;2023-01-08T13:21:36;9.10;;;2.88;;
57535;SDS011;43361;49.790;8.960;2023-01-08T13:31:39;6.88;;;2.83;;
57535;SDS011;43361;49.790;8.960;2023-01-08T13:41:43;9.10;;;2.88;;
57535;SDS011;43361;49.790;8.960;2023-01-08T13:51:46;6.03;;;2.60;;
57535;SDS011;43361;49.790;8.960;2023-01-08T14:01:53;6.53;;;2.60;;
57535;SDS011;43361;49.790;8.960;2023-01-08T14:11:55;9.80;;;3.10;;
57535;SDS011;43361;49.790;8.960;2023-01-08T14:21:56;8.75;;;2.75;;
57535;SDS011;43361;49.790;8.960;2023-01-08T14:31:59;7.32;;;2.65;;
57535;SDS011;43361;49.790;8.960;2023-01-08T14:42:00;6.55;;;2.30;;
57535;SDS011;43361;49.790;8.960;2023-01-08T14:52:24;3.67;;;1.92;;
57535;SDS011;43361;49.790;8.960;2023-01-08T15:02:25;4.80;;;2.13;;
57535;SDS011;43361;49.790;8.960;2023-01-08T15:12:28;2.88;;;1.55;;
57535;SDS011;43361;49.790;8.960;2023-01-08T15:22:30;7.47;;;1.88;;
57535;SDS011;43361;49.790;8.960;2023-01-08T15:32:32;5.82;;;2.05;;
57535;SDS011;43361;49.790;8.960;2023-01-08T15:42:35;9.30;;;1.90;;
57535;SDS011;43361;49.790;8.960;2023-01-08T15:52:56;12.27;;;2.10;;
57535;SDS011;43361;49.790;8.960;2023-01-08T16:02:56;5.07;;;1.88;;
57535;SDS011;43361;49.790;8.960;2023-01-08T16:13:00;7.38;;;2.22;;
57535;SDS011;43361;49.790;8.960;2023-01-08T16:23:00;7.45;;;1.80;;
57535;SDS011;43361;49.790;8.960;2023-01-08T16:33:02;10.20;;;2.22;;
57535;SDS011;43361;49.790;8.960;2023-01-08T16:43:02;14.05;;;2.35;;
57535;SDS011;43361;49.790;8.960;2023-01-08T16:53:04;9.18;;;1.90;;
57535;SDS011;43361;49.790;8.960;2023-01-08T17:03:05;14.93;;;2.42;;
57535;SDS011;43361;49.790;8.960;2023-01-08T17:13:07;6.22;;;1.73;;
57535;SDS011;43361;49.790;8.960;2023-01-08T17:23:07;8.07;;;1.88;;
57535;SDS011;43361;49.790;8.960;2023-01-08T17:33:09;12.55;;;2.03;;
57535;SDS011;43361;49.790;8.960;2023-01-08T17:43:09;8.85;;;2.22;;
57535;SDS011;43361;49.790;8.960;2023-01-08T17:53:11;24.77;;;2.28;;
57535;SDS011;43361;49.790;8.960;2023-01-08T18:03:11;15.10;;;2.25;;
57535;SDS011;43361;49.790;8.960;2023-01-08T18:13:13;7.40;;;2.05;;
57535;SDS011;43361;49.790;8.960;2023-01-08T18:23:14;8.77;;;2.00;;
57535;SDS011;43361;49.790;8.960;2023-01-08T18:33:16;7.80;;;2.03;;
57535;SDS011;43361;49.790;8.960;2023-01-08T18:43:16;6.05;;;1.90;;
57535;SDS011;43361;49.790;8.960;2023-01-08T18:53:18;8.07;;;1.63;;
57535;SDS011;43361;49.790;8.960;2023-01-08T19:03:18;13.85;;;2.20;;
57535;SDS011;43361;49.790;8.960;2023-01-08T19:13:20;11.38;;;2.17;;
57535;SDS011;43361;49.790;8.960;2023-01-08T19:23:20;7.68;;;1.40;;
57535;SDS011;43361;49.790;8.960;2023-01-08T19:33:22;6.65;;;2.03;;
57535;SDS011;43361;49.790;8.960;2023-01-08T19:43:23;4.38;;;1.50;;
57535;SDS011;43361;49.790;8.960;2023-01-08T19:53:42;5.10;;;1.85;;
57535;SDS011;43361;49.790;8.960;2023-01-08T20:03:43;4.97;;;1.70;;
57535;SDS011;43361;49.790;8.960;2023-01-08T20:13:45;4.22;;;1.50;;
57535;SDS011;43361;49.790;8.960;2023-01-08T20:23:45;4.25;;;1.48;;
57535;SDS011;43361;49.790;8.960;2023-01-08T20:33:47;6.25;;;1.80;;
57535;SDS011;43361;49.790;8.960;2023-01-08T20:43:48;6.75;;;2.00;;
57535;SDS011;43361;49.790;8.960;2023-01-08T20:53:50;4.25;;;1.50;;
57535;SDS011;43361;49.790;8.960;2023-01-08T21:03:52;6.38;;;1.50;;
57535;SDS011;43361;49.790;8.960;2023-01-08T21:13:54;3.00;;;1.50;;
57535;SDS011;43361;49.790;8.960;2023-01-08T21:23:55;4.13;;;2.00;;
57535;SDS011;43361;49.790;8.960;2023-01-08T21:33:57;5.03;;;1.70;;
57535;SDS011;43361;49.790;8.960;2023-01-08T21:43:58;7.35;;;1.70;;
57535;SDS011;43361;49.790;8.960;2023-01-08T21:54:18;4.32;;;1.42;;
57535;SDS011;43361;49.790;8.960;2023-01-08T22:04:19;7.13;;;1.77;;
57535;SDS011;43361;49.790;8.960;2023-01-08T22:14:21;6.50;;;1.73;;
57535;SDS011;43361;49.790;8.960;2023-01-08T22:24:21;5.65;;;1.70;;
57535;SDS011;43361;49.790;8.960;2023-01-08T22:34:23;1.90;;;1.20;;
57535;SDS011;43361;49.790;8.960;2023-01-08T22:44:23;3.78;;;1.30;;
57535;SDS011;43361;49.790;8.960;2023-01-08T22:54:25;4.32;;;1.63;;
57535;SDS011;43361;49.790;8.960;2023-01-08T23:04:25;4.72;;;1.50;;
57535;SDS011;43361;49.790;8.960;2023-01-08T23:14:27;4.15;;;1.50;;
57535;SDS011;43361;49.790;8.960;2023-01-08T23:24:27;2.95;;;1.40;;
57535;SDS011;43361;49.790;8.960;2023-01-08T23:34:31;3.08;;;1.40;;
57535;SDS011;43361;49.790;8.960;2023-01-08T23:44:31;3.40;;;1.50;;
57535;SDS011;43361;49.790;8.960;2023-01-08T23:54:33;2.22;;;1.02;;
